Time;durP1;ratioP1;P1;durP2;ratioP2;P2;SDS_P1;SDS_P2;PMS_P1;PMS_P2;Temp;Humidity;BMP_temperature;BMP_pressure;BME280_temperature;BME280_humidity;BME280_pressure;Samples;Min_cycle;Max_cycle;Signal;HPM_P1;HPM_P2
2021/05/14 00:02:07;;;;;;;13.75;8.52;;;9.70;99.90;;;;;;5047413;28;20057;-82
2021/05/14 00:04:33;;;;;;;11.02;8.63;;;9.70;99.90;;;;;;5051932;28;20150;-83
2021/05/14 00:07:00;;;;;;;13.90;8.95;;;9.60;99.90;;;;;;5051929;28;20045;-82
2021/05/14 00:09:27;;;;;;;15.20;9.15;;;9.60;99.90;;;;;;5050158;28;20049;-82
2021/05/14 00:11:54;;;;;;;13.18;8.88;;;9.60;99.90;;;;;;5065251;28;20098;-82
2021/05/14 00:14:22;;;;;;;12.60;9.00;;;9.60;99.90;;;;;;5065908;28;20132;-82
2021/05/14 00:16:49;;;;;;;13.77;9.15;;;9.60;99.90;;;;;;5057890;28;20072;-82
2021/05/14 00:19:15;;;;;;;15.07;8.95;;;9.50;99.90;;;;;;5049804;28;20060;-82
2021/05/14 00:21:42;;;;;;;13.82;9.77;;;9.50;99.90;;;;;;5065301;28;20102;-82
2021/05/14 00:24:09;;;;;;;15.52;9.75;;;9.50;99.90;;;;;;5064922;28;20049;-81
2021/05/14 00:26:36;;;;;;;14.43;10.07;;;9.50;99.90;;;;;;5048818;28;20059;-82
2021/05/14 00:29:03;;;;;;;11.35;9.35;;;9.50;99.90;;;;;;5048020;28;20059;-82
2021/05/14 00:31:29;;;;;;;13.30;9.77;;;9.40;99.90;;;;;;5047112;28;20047;-82
2021/05/14 00:33:56;;;;;;;13.35;9.40;;;9.40;99.90;;;;;;5054721;28;20412;-83
2021/05/14 00:36:25;;;;;;;14.00;9.90;;;9.40;99.90;;;;;;5048119;28;20467;-81
2021/05/14 00:38:52;;;;;;;13.93;10.10;;;9.40;99.90;;;;;;5050140;28;20176;-82
2021/05/14 00:41:19;;;;;;;14.10;9.52;;;9.40;99.90;;;;;;5050052;28;20048;-82
2021/05/14 00:43:46;;;;;;;15.43;11.30;;;9.40;99.90;;;;;;5051270;28;20049;-82
2021/05/14 00:46:13;;;;;;;15.18;10.98;;;9.30;99.90;;;;;;5047930;28;20128;-82
2021/05/14 00:48:40;;;;;;;14.25;10.23;;;9.30;99.90;;;;;;5045170;28;20075;-82
2021/05/14 00:51:07;;;;;;;13.77;10.48;;;9.30;99.90;;;;;;5034624;28;23063;-83
2021/05/14 00:53:34;;;;;;;15.98;10.93;;;9.30;99.90;;;;;;5066866;28;20049;-83
2021/05/14 00:56:04;;;;;;;20.02;11.45;;;9.30;99.90;;;;;;5048295;28;20068;-83
2021/05/14 00:58:31;;;;;;;13.93;10.45;;;9.30;99.90;;;;;;5045596;28;20591;-81
2021/05/14 01:00:58;;;;;;;15.95;10.88;;;9.30;99.90;;;;;;5050920;28;20065;-82
2021/05/14 01:03:24;;;;;;;18.25;10.60;;;9.30;99.90;;;;;;5049492;28;20479;-82
2021/05/14 01:05:51;;;;;;;17.10;10.70;;;9.30;99.90;;;;;;5053638;28;20127;-82
2021/05/14 01:08:18;;;;;;;16.08;11.02;;;9.30;99.90;;;;;;5058520;28;20079;-82
2021/05/14 01:10:46;;;;;;;14.27;11.10;;;9.30;99.90;;;;;;5066352;28;20029;-81
2021/05/14 01:13:13;;;;;;;15.93;10.45;;;9.20;99.90;;;;;;5064114;28;20036;-82
2021/05/14 01:15:39;;;;;;;13.50;10.23;;;9.20;99.90;;;;;;5065046;28;20060;-82
2021/05/14 01:18:07;;;;;;;13.18;9.70;;;9.20;99.90;;;;;;5063265;28;20108;-82
2021/05/14 01:20:33;;;;;;;14.07;10.68;;;9.20;99.90;;;;;;5064518;28;20060;-82
2021/05/14 01:23:00;;;;;;;16.05;10.77;;;9.10;99.90;;;;;;5058657;28;20049;-82
2021/05/14 01:25:27;;;;;;;15.20;11.13;;;9.10;99.90;;;;;;5050151;28;21472;-83
2021/05/14 01:27:58;;;;;;;15.32;10.63;;;9.10;99.90;;;;;;5050792;28;20049;-83
2021/05/14 01:30:24;;;;;;;15.57;10.68;;;9.10;99.90;;;;;;5051114;28;20135;-83
2021/05/14 01:32:51;;;;;;;13.10;10.07;;;9.20;99.90;;;;;;5049614;28;20063;-84
2021/05/14 01:35:18;;;;;;;16.00;10.88;;;9.20;99.90;;;;;;5050590;28;20059;-83
2021/05/14 01:37:45;;;;;;;12.95;9.80;;;9.20;99.90;;;;;;5052522;28;20049;-83
2021/05/14 01:40:12;;;;;;;16.67;9.48;;;9.20;99.90;;;;;;5046381;28;20097;-83
2021/05/14 01:42:44;;;;;;;15.35;10.18;;;9.20;99.90;;;;;;5050258;28;20076;-83
2021/05/14 01:45:11;;;;;;;13.70;10.02;;;9.10;99.90;;;;;;5043494;28;20472;-83
2021/05/14 01:47:38;;;;;;;17.45;11.15;;;9.10;99.90;;;;;;5052416;28;20055;-84
2021/05/14 01:50:06;;;;;;;16.27;10.55;;;9.10;99.90;;;;;;5048359;28;20056;-84
2021/05/14 01:52:34;;;;;;;13.60;10.00;;;9.10;99.90;;;;;;5048501;28;20360;-82
2021/05/14 01:55:01;;;;;;;13.35;9.88;;;9.20;99.90;;;;;;5049758;28;20052;-83
2021/05/14 01:57:29;;;;;;;14.57;10.48;;;9.20;99.90;;;;;;5049588;28;20084;-84
2021/05/14 01:59:57;;;;;;;13.32;10.23;;;9.20;99.90;;;;;;5029774;28;20088;-84
2021/05/14 02:02:24;;;;;;;14.38;9.90;;;9.20;99.90;;;;;;5043238;28;20582;-83
2021/05/14 02:04:51;;;;;;;13.30;9.30;;;9.10;99.90;;;;;;5051379;28;20419;-83
2021/05/14 02:07:17;;;;;;;14.65;9.13;;;9.10;99.90;;;;;;5049345;28;20075;-83
2021/05/14 02:09:44;;;;;;;16.83;9.00;;;9.10;99.90;;;;;;5064703;28;20499;-84
2021/05/14 02:12:12;;;;;;;12.30;8.77;;;9.10;99.90;;;;;;5050328;28;20116;-84
2021/05/14 02:14:38;;;;;;;16.23;9.45;;;9.10;99.90;;;;;;5049046;28;20135;-83
2021/05/14 02:17:05;;;;;;;13.30;9.32;;;9.10;99.90;;;;;;5047216;28;20052;-82
2021/05/14 02:19:32;;;;;;;13.60;10.27;;;9.20;99.90;;;;;;5066845;28;20059;-83
2021/05/14 02:21:59;;;;;;;13.82;9.20;;;9.20;99.90;;;;;;5063393;28;20112;-83
2021/05/14 02:24:26;;;;;;;11.93;9.43;;;9.20;99.90;;;;;;5055827;28;20037;-83
2021/05/14 02:26:53;;;;;;;13.10;8.57;;;9.20;99.90;;;;;;5056853;28;20072;-82
2021/05/14 02:29:20;;;;;;;12.77;9.15;;;9.20;99.90;;;;;;5071880;28;21002;-83
2021/05/14 02:31:47;;;;;;;13.95;8.82;;;9.20;99.90;;;;;;5055222;28;20121;-84
2021/05/14 02:34:14;;;;;;;15.65;8.98;;;9.20;99.90;;;;;;5049674;28;20461;-83
2021/05/14 02:36:41;;;;;;;10.13;8.15;;;9.20;99.90;;;;;;5050318;28;20122;-83
2021/05/14 02:39:09;;;;;;;12.52;9.13;;;9.30;99.90;;;;;;5053668;28;20036;-83
2021/05/14 02:41:37;;;;;;;11.90;8.30;;;9.20;99.90;;;;;;5041633;28;20057;-83
2021/05/14 02:44:05;;;;;;;11.07;8.80;;;9.20;99.90;;;;;;5043721;28;20041;-83
2021/05/14 02:46:33;;;;;;;12.85;9.48;;;9.20;99.90;;;;;;5047879;28;20041;-83
2021/05/14 02:49:01;;;;;;;13.52;9.20;;;9.30;99.90;;;;;;5062222;28;20095;-82
2021/05/14 02:51:28;;;;;;;14.95;10.10;;;9.20;99.90;;;;;;5047702;28;20135;-83
2021/05/14 02:53:54;;;;;;;14.23;9.38;;;9.20;99.90;;;;;;5046657;28;20175;-83
2021/05/14 02:56:21;;;;;;;13.63;9.80;;;9.20;99.90;;;;;;5050009;28;20049;-83
2021/05/14 02:58:48;;;;;;;11.27;8.98;;;9.20;99.90;;;;;;5043138;28;20045;-83
2021/05/14 03:01:15;;;;;;;14.43;9.25;;;9.20;99.90;;;;;;5029732;28;20104;-83
2021/05/14 03:03:42;;;;;;;14.25;8.52;;;9.20;99.90;;;;;;5046834;28;20547;-82
2021/05/14 03:06:10;;;;;;;12.25;9.85;;;9.30;99.90;;;;;;5041215;28;20567;-83
2021/05/14 03:08:37;;;;;;;15.13;10.02;;;9.20;99.90;;;;;;5047835;28;20037;-84
2021/05/14 03:11:04;;;;;;;13.32;9.10;;;9.20;99.90;;;;;;5043265;28;20109;-85
2021/05/14 03:13:31;;;;;;;11.40;8.77;;;9.20;99.90;;;;;;5048478;28;20113;-83
2021/05/14 03:15:59;;;;;;;12.65;9.13;;;9.20;99.90;;;;;;5047228;28;20068;-83
2021/05/14 03:18:26;;;;;;;10.82;9.07;;;9.20;99.90;;;;;;5043945;28;20055;-83
2021/05/14 03:20:54;;;;;;;11.90;8.13;;;9.20;99.90;;;;;;5051348;28;20131;-83
2021/05/14 03:23:22;;;;;;;12.68;8.25;;;9.30;99.90;;;;;;5046782;28;20032;-83
2021/05/14 03:25:49;;;;;;;9.77;8.20;;;9.30;99.90;;;;;;5047558;28;20061;-84
2021/05/14 03:28:15;;;;;;;14.60;8.50;;;9.30;99.90;;;;;;5059516;28;20124;-84
2021/05/14 03:30:43;;;;;;;11.32;8.80;;;9.30;99.90;;;;;;5045686;28;20052;-83
2021/05/14 03:33:10;;;;;;;10.80;7.90;;;9.20;99.90;;;;;;5044741;28;20095;-83
2021/05/14 03:35:37;;;;;;;12.85;8.45;;;9.20;99.90;;;;;;5045285;28;20060;-83
2021/05/14 03:38:04;;;;;;;11.63;8.52;;;9.10;99.90;;;;;;5045909;28;20037;-84
2021/05/14 03:40:36;;;;;;;10.73;8.13;;;9.10;99.90;;;;;;5047484;28;20057;-84
2021/05/14 03:43:04;;;;;;;12.40;8.13;;;9.10;99.90;;;;;;5045875;28;20073;-84
2021/05/14 03:45:32;;;;;;;12.73;9.07;;;9.00;99.90;;;;;;5053645;28;20048;-84
2021/05/14 03:47:59;;;;;;;12.80;8.13;;;9.00;99.90;;;;;;5046658;28;20051;-84
2021/05/14 03:50:31;;;;;;;14.07;9.52;;;9.00;99.90;;;;;;5047955;28;20145;-83
2021/05/14 03:53:03;;;;;;;11.18;8.70;;;9.00;99.90;;;;;;5044556;28;20704;-82
2021/05/14 03:55:29;;;;;;;12.85;8.35;;;9.00;99.90;;;;;;5045736;28;20049;-83
2021/05/14 03:57:56;;;;;;;11.25;8.10;;;9.10;99.90;;;;;;5056335;28;20678;-83
2021/05/14 04:00:24;;;;;;;11.25;8.05;;;9.10;99.90;;;;;;5058775;28;20131;-83
2021/05/14 04:02:52;;;;;;;11.02;8.43;;;9.10;99.90;;;;;;5045135;28;20555;-83
2021/05/14 04:05:19;;;;;;;11.35;9.25;;;9.10;99.90;;;;;;5047323;28;20099;-83
2021/05/14 04:07:47;;;;;;;12.00;8.25;;;9.10;99.90;;;;;;5058463;28;20051;-82
2021/05/14 04:10:19;;;;;;;14.32;8.75;;;9.10;99.90;;;;;;5046083;28;20132;-83
2021/05/14 04:15:32;;;;;;;13.98;9.25;;;9.10;99.90;;;;;;5045840;28;20040;-83
2021/05/14 04:17:59;;;;;;;10.07;8.25;;;9.10;99.90;;;;;;5042052;28;20185;-83
2021/05/14 04:20:26;;;;;;;10.48;8.20;;;9.10;99.90;;;;;;5048646;28;20065;-84
2021/05/14 04:22:53;;;;;;;12.20;8.75;;;9.10;99.90;;;;;;5037090;28;20057;-83
2021/05/14 04:25:20;;;;;;;11.75;9.20;;;9.10;99.90;;;;;;5047889;28;20114;-83
2021/05/14 04:27:46;;;;;;;11.20;8.75;;;9.00;99.90;;;;;;5045409;28;20067;-82
2021/05/14 04:30:14;;;;;;;16.70;9.32;;;9.00;99.90;;;;;;5043422;28;20128;-83
2021/05/14 04:32:41;;;;;;;11.20;8.38;;;9.00;99.90;;;;;;5046323;28;20116;-84
2021/05/14 04:35:08;;;;;;;11.90;8.77;;;9.00;99.90;;;;;;5046079;28;20045;-84
2021/05/14 04:37:35;;;;;;;12.38;8.52;;;9.00;99.90;;;;;;5046151;28;20476;-83
2021/05/14 04:40:03;;;;;;;14.77;9.93;;;8.90;99.90;;;;;;5048319;28;20055;-83
2021/05/14 04:42:29;;;;;;;11.48;8.77;;;8.90;99.90;;;;;;5065880;28;20049;-83
2021/05/14 04:44:56;;;;;;;14.57;9.70;;;9.00;99.90;;;;;;5051005;28;20052;-84
2021/05/14 04:47:23;;;;;;;12.52;8.38;;;9.00;99.90;;;;;;5048363;28;20109;-83
2021/05/14 04:49:50;;;;;;;10.68;8.43;;;9.10;99.90;;;;;;5040704;28;20078;-83
2021/05/14 04:52:20;;;;;;;12.10;9.20;;;9.10;99.90;;;;;;5048349;28;20112;-83
2021/05/14 04:54:48;;;;;;;10.63;8.32;;;9.10;99.90;;;;;;5049234;28;20065;-84
2021/05/14 04:57:14;;;;;;;12.50;8.98;;;9.20;99.90;;;;;;5049467;28;20119;-83
2021/05/14 04:59:42;;;;;;;12.98;8.77;;;9.20;99.90;;;;;;5055464;28;20056;-83
2021/05/14 05:02:09;;;;;;;17.63;9.13;;;9.30;99.90;;;;;;5050971;28;20096;-84
2021/05/14 05:04:37;;;;;;;11.70;8.60;;;9.30;99.90;;;;;;5033898;28;20056;-84
2021/05/14 05:07:07;;;;;;;13.27;9.05;;;9.30;99.90;;;;;;5051586;28;20053;-84
2021/05/14 05:09:34;;;;;;;13.50;8.65;;;9.30;99.90;;;;;;5064635;28;20076;-83
2021/05/14 05:12:01;;;;;;;12.32;8.73;;;9.30;99.90;;;;;;5052856;28;20127;-83
2021/05/14 05:14:28;;;;;;;14.07;8.50;;;9.30;99.90;;;;;;5048087;28;20036;-84
2021/05/14 05:16:55;;;;;;;13.43;8.35;;;9.40;99.90;;;;;;5050057;28;20041;-84
2021/05/14 05:19:22;;;;;;;8.57;7.50;;;9.40;99.90;;;;;;5049205;28;20064;-86
2021/05/14 05:21:49;;;;;;;12.32;7.72;;;9.50;99.90;;;;;;5066081;28;20043;-85
2021/05/14 05:24:19;;;;;;;10.52;7.68;;;9.50;99.90;;;;;;5064433;28;20095;-84
2021/05/14 05:26:47;;;;;;;9.15;7.32;;;9.50;99.90;;;;;;5063676;28;20114;-83
2021/05/14 05:29:13;;;;;;;8.75;7.50;;;9.60;99.90;;;;;;5062069;28;20112;-84
2021/05/14 05:31:43;;;;;;;14.13;7.97;;;9.60;99.90;;;;;;5052862;28;20045;-84
2021/05/14 05:34:10;;;;;;;12.55;8.07;;;9.60;99.90;;;;;;5048113;28;20060;-84
2021/05/14 05:36:39;;;;;;;10.18;7.68;;;9.70;99.90;;;;;;5027370;28;20076;-84
2021/05/14 05:39:06;;;;;;;13.57;8.57;;;9.70;99.90;;;;;;5043297;28;20045;-83
2021/05/14 05:41:33;;;;;;;12.25;8.15;;;9.70;99.90;;;;;;5030855;28;20061;-83
2021/05/14 05:44:00;;;;;;;13.52;8.52;;;9.70;99.90;;;;;;5034228;28;20139;-85
2021/05/14 05:46:26;;;;;;;11.25;8.20;;;9.60;99.90;;;;;;5049878;28;20152;-84
2021/05/14 05:48:53;;;;;;;13.10;9.45;;;9.60;99.90;;;;;;5059460;28;20045;-84
2021/05/14 05:51:20;;;;;;;14.23;9.13;;;9.60;99.90;;;;;;5041569;28;20075;-85
2021/05/14 05:53:47;;;;;;;13.55;8.65;;;9.60;99.90;;;;;;5047095;28;20068;-83
2021/05/14 05:56:13;;;;;;;14.07;9.02;;;9.60;99.90;;;;;;5041102;28;20044;-84
2021/05/14 05:58:40;;;;;;;12.88;9.13;;;9.50;99.90;;;;;;5050224;28;20143;-84
2021/05/14 06:01:07;;;;;;;13.10;8.20;;;9.50;99.90;;;;;;5047756;28;20056;-84
2021/05/14 06:03:34;;;;;;;12.98;9.55;;;9.50;99.90;;;;;;5050911;28;20059;-84
2021/05/14 06:06:00;;;;;;;14.77;9.32;;;9.50;99.90;;;;;;5046876;28;20070;-83
2021/05/14 06:08:28;;;;;;;11.57;9.20;;;9.50;99.90;;;;;;5059009;28;20057;-84
2021/05/14 06:10:55;;;;;;;13.35;9.02;;;9.50;99.90;;;;;;5047495;28;20052;-83
2021/05/14 06:13:22;;;;;;;16.52;9.43;;;9.50;99.90;;;;;;5049897;28;20083;-85
2021/05/14 06:15:51;;;;;;;12.05;8.40;;;9.50;99.90;;;;;;5039892;28;20061;-85
2021/05/14 06:18:21;;;;;;;12.27;8.25;;;9.50;99.90;;;;;;5043510;28;20132;-85
2021/05/14 06:20:49;;;;;;;12.57;8.32;;;9.50;99.90;;;;;;5044203;28;20103;-83
2021/05/14 06:23:16;;;;;;;12.32;8.40;;;9.60;99.90;;;;;;5045450;28;20063;-84
2021/05/14 06:25:43;;;;;;;15.80;8.60;;;9.60;99.90;;;;;;5049199;28;20123;-84
2021/05/14 06:28:17;;;;;;;11.68;8.82;;;9.70;99.90;;;;;;5063970;28;20049;-84
2021/05/14 06:30:44;;;;;;;14.13;8.93;;;9.70;99.90;;;;;;5044867;28;20131;-84
2021/05/14 06:33:11;;;;;;;12.52;8.73;;;9.60;99.90;;;;;;5048044;28;20141;-84
2021/05/14 06:35:40;;;;;;;14.18;8.88;;;9.70;99.90;;;;;;5047899;28;20057;-84
2021/05/14 06:38:07;;;;;;;12.43;8.95;;;9.70;99.90;;;;;;5049335;28;20136;-84
2021/05/14 06:40:34;;;;;;;13.40;9.27;;;9.70;99.90;;;;;;5065978;28;20485;-85
2021/05/14 06:43:01;;;;;;;15.95;8.55;;;9.70;99.90;;;;;;5049063;28;20462;-83
2021/05/14 06:45:28;;;;;;;12.15;8.27;;;9.70;99.90;;;;;;5062252;28;20044;-84
2021/05/14 06:48:06;;;;;;;13.10;8.65;;;9.70;99.90;;;;;;5049109;28;20062;-83
2021/05/14 06:50:34;;;;;;;14.15;9.07;;;9.70;99.90;;;;;;5048206;28;20075;-84
2021/05/14 06:53:02;;;;;;;15.65;8.80;;;9.70;99.90;;;;;;5044533;28;20045;-84
2021/05/14 06:55:29;;;;;;;12.55;9.05;;;9.80;99.90;;;;;;5043390;28;20435;-83
2021/05/14 06:57:56;;;;;;;13.80;9.52;;;9.80;99.90;;;;;;5044238;28;20107;-84
2021/05/14 07:00:23;;;;;;;14.32;9.52;;;9.80;99.90;;;;;;5036781;28;20048;-84
2021/05/14 07:02:50;;;;;;;16.92;9.73;;;9.80;99.90;;;;;;5045499;28;20045;-84
2021/05/14 07:05:17;;;;;;;13.02;9.75;;;9.90;99.90;;;;;;5035917;28;20076;-84
2021/05/14 07:07:44;;;;;;;18.00;9.32;;;10.00;99.90;;;;;;5060792;28;20111;-84
2021/05/14 07:10:12;;;;;;;16.90;9.55;;;10.00;99.90;;;;;;5046230;28;20041;-85
2021/05/14 07:12:42;;;;;;;16.70;9.90;;;10.00;99.90;;;;;;5047894;28;20071;-84
2021/05/14 07:15:23;;;;;;;13.98;9.07;;;10.00;99.90;;;;;;5061133;28;20061;-84
2021/05/14 07:17:52;;;;;;;13.07;9.85;;;10.10;99.90;;;;;;5045745;28;20045;-84
2021/05/14 07:20:20;;;;;;;15.23;8.90;;;10.00;99.90;;;;;;5046584;28;20046;-84
2021/05/14 07:22:47;;;;;;;14.93;9.93;;;10.00;99.90;;;;;;5047825;28;20059;-84
2021/05/14 07:25:14;;;;;;;14.25;10.00;;;10.10;99.90;;;;;;5049645;28;20063;-85
2021/05/14 07:27:41;;;;;;;15.70;10.70;;;10.10;99.90;;;;;;5047126;28;20111;-83
2021/05/14 07:30:11;;;;;;;12.80;9.43;;;10.10;99.90;;;;;;5023946;28;20049;-83
2021/05/14 07:32:38;;;;;;;15.93;10.52;;;10.20;99.90;;;;;;5045597;28;20052;-84
2021/05/14 07:35:07;;;;;;;13.32;8.77;;;10.20;99.90;;;;;;5047725;28;20044;-84
2021/05/14 07:37:33;;;;;;;15.00;10.07;;;10.20;99.90;;;;;;5056434;28;20069;-84
2021/05/14 07:40:00;;;;;;;13.88;9.07;;;10.20;99.90;;;;;;5044735;28;20049;-84
2021/05/14 07:42:27;;;;;;;13.43;9.40;;;10.30;99.90;;;;;;5037587;28;20048;-84
2021/05/14 07:44:56;;;;;;;18.40;10.23;;;10.30;99.90;;;;;;5050396;28;20639;-85
2021/05/14 07:47:22;;;;;;;12.30;9.02;;;10.40;99.90;;;;;;5047142;28;20467;-84
2021/05/14 07:49:49;;;;;;;16.45;10.32;;;10.40;99.90;;;;;;5046923;28;20104;-83
2021/05/14 07:52:16;;;;;;;13.05;9.38;;;10.40;99.90;;;;;;5039496;28;20757;-83
2021/05/14 07:54:43;;;;;;;13.65;9.23;;;10.50;99.90;;;;;;5046397;28;20484;-83
2021/05/14 07:57:10;;;;;;;12.40;8.98;;;10.50;99.90;;;;;;5036701;28;20082;-83
2021/05/14 07:59:36;;;;;;;12.30;8.80;;;10.50;99.90;;;;;;5046036;28;20053;-82
2021/05/14 08:02:03;;;;;;;16.65;9.18;;;10.50;99.90;;;;;;5046335;28;20076;-83
2021/05/14 08:04:30;;;;;;;15.48;10.05;;;10.60;99.90;;;;;;5041583;28;20068;-82
2021/05/14 08:06:57;;;;;;;12.45;8.95;;;10.70;99.90;;;;;;5046956;28;20492;-83
2021/05/14 08:09:25;;;;;;;16.55;10.07;;;10.70;99.90;;;;;;5047477;28;20464;-84
2021/05/14 08:11:52;;;;;;;13.43;9.20;;;10.80;99.90;;;;;;5048171;28;20048;-83
2021/05/14 08:14:19;;;;;;;14.00;9.20;;;10.80;99.90;;;;;;5064412;28;20101;-82
2021/05/14 08:16:47;;;;;;;12.63;8.45;;;10.90;99.90;;;;;;5061484;28;20045;-83
2021/05/14 08:19:14;;;;;;;14.07;9.10;;;11.00;99.90;;;;;;5049732;28;20118;-82
2021/05/14 08:21:44;;;;;;;10.73;7.85;;;11.00;99.90;;;;;;5033266;28;20053;-82
2021/05/14 08:24:12;;;;;;;13.82;7.63;;;11.10;99.90;;;;;;5044433;28;20477;-82
2021/05/14 08:26:40;;;;;;;10.93;7.95;;;11.20;99.90;;;;;;5048048;28;20033;-82
2021/05/14 08:29:08;;;;;;;11.48;8.55;;;11.30;99.90;;;;;;5047657;28;20484;-82
2021/05/14 08:31:39;;;;;;;11.30;8.30;;;11.40;99.90;;;;;;5047532;28;20127;-82
2021/05/14 08:34:11;;;;;;;16.15;8.07;;;11.50;99.90;;;;;;5047542;28;20071;-82
2021/05/14 08:36:40;;;;;;;12.52;8.48;;;11.60;99.90;;;;;;5045471;28;20098;-83
2021/05/14 08:39:08;;;;;;;11.68;8.55;;;11.70;99.90;;;;;;5048663;28;20406;-82
2021/05/14 08:41:35;;;;;;;11.65;7.88;;;11.70;99.90;;;;;;5047935;28;20044;-82
2021/05/14 08:44:05;;;;;;;11.20;7.53;;;11.80;99.90;;;;;;5046504;28;20831;-82
2021/05/14 08:46:35;;;;;;;12.88;7.72;;;11.80;99.90;;;;;;5048533;28;20053;-82
2021/05/14 08:49:12;;;;;;;11.13;8.55;;;11.80;99.90;;;;;;5047863;28;20051;-83
2021/05/14 08:51:39;;;;;;;13.27;7.60;;;11.90;99.90;;;;;;5048429;28;20072;-82
2021/05/14 08:54:07;;;;;;;13.02;8.05;;;12.00;99.90;;;;;;5046802;28;20490;-83
2021/05/14 08:56:33;;;;;;;11.38;7.95;;;12.10;99.90;;;;;;5061574;28;20108;-82
2021/05/14 08:59:00;;;;;;;12.02;7.72;;;12.20;99.90;;;;;;5061418;28;20048;-82
2021/05/14 09:01:27;;;;;;;10.68;7.13;;;12.30;99.90;;;;;;5047059;28;20059;-83
2021/05/14 09:04:03;;;;;;;15.70;7.85;;;12.50;99.90;;;;;;5046078;28;20049;-83
2021/05/14 09:06:36;;;;;;;15.45;8.70;;;12.70;99.90;;;;;;5044027;28;20065;-83
2021/05/14 09:09:07;;;;;;;11.80;8.50;;;12.90;99.90;;;;;;5044380;28;20052;-81
2021/05/14 09:11:48;;;;;;;12.40;7.07;;;13.10;99.90;;;;;;5047693;28;20124;-81
2021/05/14 09:14:47;;;;;;;14.13;7.50;;;13.20;99.90;;;;;;5044971;28;20048;-81
2021/05/14 09:17:17;;;;;;;11.38;7.10;;;13.30;99.90;;;;;;5050056;28;20102;-81
2021/05/14 09:19:45;;;;;;;11.45;8.40;;;13.40;99.90;;;;;;5045864;28;20114;-81
2021/05/14 09:22:18;;;;;;;10.75;6.00;;;13.50;99.90;;;;;;5059053;28;20670;-80
2021/05/14 09:24:47;;;;;;;14.35;7.53;;;13.60;99.90;;;;;;5059463;28;20053;-80
2021/05/14 09:27:23;;;;;;;16.85;8.57;;;13.60;99.90;;;;;;5038889;28;20051;-80
2021/05/14 09:29:50;;;;;;;11.95;7.43;;;13.60;99.90;;;;;;5044181;28;20049;-80
2021/05/14 09:32:28;;;;;;;11.05;7.28;;;13.60;99.90;;;;;;5060477;28;20052;-79
2021/05/14 09:34:59;;;;;;;11.13;6.90;;;13.50;99.90;;;;;;5047134;28;20476;-78
2021/05/14 09:37:27;;;;;;;8.63;6.38;;;13.50;99.90;;;;;;5037321;28;20079;-78
2021/05/14 09:40:20;;;;;;;12.55;6.57;;;13.30;99.90;;;;;;5046628;28;20048;-78
2021/05/14 09:42:49;;;;;;;10.02;7.32;;;13.20;99.90;;;;;;5061754;28;20480;-80
2021/05/14 09:45:24;;;;;;;12.00;6.47;;;13.10;99.90;;;;;;5043592;28;20553;-79
2021/05/14 09:48:00;;;;;;;10.38;6.50;;;13.00;99.90;;;;;;5045093;28;20051;-80
2021/05/14 09:50:32;;;;;;;9.23;6.10;;;12.80;99.90;;;;;;5041714;28;20045;-79
2021/05/14 09:53:07;;;;;;;13.13;6.68;;;12.90;99.90;;;;;;5043562;28;20075;-78
2021/05/14 09:55:36;;;;;;;11.25;6.03;;;12.80;99.90;;;;;;5059940;28;20103;-79
2021/05/14 09:58:12;;;;;;;9.35;6.55;;;12.90;99.90;;;;;;5036277;28;20049;-79
2021/05/14 10:00:39;;;;;;;12.48;6.85;;;12.80;99.90;;;;;;5044272;28;20052;-79
2021/05/14 10:03:06;;;;;;;10.77;6.68;;;12.90;99.90;;;;;;5045211;28;20044;-79
2021/05/14 10:05:36;;;;;;;10.82;6.18;;;12.90;99.90;;;;;;5043982;28;20061;-79
2021/05/14 10:08:05;;;;;;;8.65;5.97;;;13.00;99.90;;;;;;5043494;28;20043;-79
2021/05/14 10:10:35;;;;;;;8.60;5.45;;;13.00;99.90;;;;;;5058362;28;20133;-80
2021/05/14 10:13:03;;;;;;;13.63;6.13;;;13.00;99.90;;;;;;5045461;28;20130;-79
2021/05/14 10:15:31;;;;;;;11.48;6.60;;;13.00;99.90;;;;;;5043378;28;20512;-80
2021/05/14 10:18:00;;;;;;;11.07;6.30;;;13.10;99.90;;;;;;5043669;28;20048;-80
2021/05/14 10:20:29;;;;;;;14.43;6.18;;;13.10;99.90;;;;;;5060217;28;20132;-80
2021/05/14 10:22:58;;;;;;;9.45;5.45;;;13.20;99.90;;;;;;5043029;28;20189;-78
2021/05/14 10:25:49;;;;;;;12.40;5.80;;;13.20;99.90;;;;;;5056634;28;20512;-79
2021/05/14 10:28:24;;;;;;;13.07;5.97;;;13.20;99.90;;;;;;5046481;28;20045;-80
2021/05/14 10:31:02;;;;;;;14.93;6.45;;;13.30;99.90;;;;;;5048461;28;20049;-78
2021/05/14 10:33:56;;;;;;;8.70;5.75;;;13.40;99.90;;;;;;5042941;28;20052;-80
2021/05/14 10:36:32;;;;;;;10.70;6.28;;;13.50;99.90;;;;;;5040770;28;20049;-80
2021/05/14 10:39:15;;;;;;;15.18;6.75;;;13.50;99.90;;;;;;5060152;28;20135;-80
2021/05/14 10:42:19;;;;;;;11.18;6.25;;;13.50;99.90;;;;;;5043531;28;20104;-78
2021/05/14 10:44:52;;;;;;;15.07;7.63;;;13.50;99.90;;;;;;5041172;28;20056;-79
2021/05/14 10:47:21;;;;;;;17.55;8.25;;;13.60;99.90;;;;;;5036510;28;20526;-79
2021/05/14 10:49:53;;;;;;;11.80;6.63;;;13.70;99.90;;;;;;5034506;28;20538;-79
2021/05/14 10:52:20;;;;;;;19.27;7.20;;;13.70;99.90;;;;;;5059691;28;20057;-79
2021/05/14 10:54:51;;;;;;;12.20;6.57;;;13.70;99.90;;;;;;5061073;28;20072;-79
2021/05/14 10:57:39;;;;;;;8.30;5.72;;;13.80;99.90;;;;;;5044836;28;20127;-81
2021/05/14 11:00:25;;;;;;;13.98;6.43;;;14.00;99.90;;;;;;5042709;28;20057;-80
2021/05/14 11:03:13;;;;;;;13.77;6.60;;;14.20;99.90;;;;;;5042784;28;20056;-79
2021/05/14 11:05:42;;;;;;;11.80;7.10;;;14.20;99.90;;;;;;5041402;28;20049;-80
2021/05/14 11:08:09;;;;;;;11.70;6.60;;;14.30;99.90;;;;;;5044995;28;20174;-79
2021/05/14 11:10:38;;;;;;;12.30;7.43;;;14.50;99.90;;;;;;5039958;28;20139;-79
2021/05/14 11:13:51;;;;;;;11.55;6.35;;;14.60;99.90;;;;;;5043427;28;20048;-79
2021/05/14 11:16:37;;;;;;;9.75;6.10;;;14.70;99.90;;;;;;5045498;28;20091;-80
2021/05/14 11:19:17;;;;;;;9.20;5.85;;;14.60;99.90;;;;;;5057509;28;20057;-80
2021/05/14 11:22:04;;;;;;;15.95;6.07;;;14.70;99.90;;;;;;5044637;28;20112;-81
2021/05/14 11:24:34;;;;;;;12.25;6.55;;;14.80;99.90;;;;;;5041258;28;20404;-80
2021/05/14 11:27:04;;;;;;;14.52;7.38;;;15.00;99.90;;;;;;5040050;28;20481;-79
2021/05/14 11:29:33;;;;;;;13.40;6.28;;;15.30;99.90;;;;;;5032284;28;20509;-79
2021/05/14 11:32:12;;;;;;;11.93;6.07;;;15.50;99.90;;;;;;5036039;28;20484;-80
2021/05/14 11:34:57;;;;;;;11.00;6.18;;;15.90;99.90;;;;;;5043512;28;20052;-79
2021/05/14 11:37:26;;;;;;;12.48;6.47;;;16.30;99.90;;;;;;5042741;28;20097;-79
2021/05/14 11:39:53;;;;;;;8.27;5.80;;;16.70;99.90;;;;;;5055990;28;20231;-78
2021/05/14 11:42:22;;;;;;;17.58;6.78;;;16.90;99.90;;;;;;5036591;28;20124;-79
2021/05/14 11:44:56;;;;;;;16.33;6.95;;;17.10;99.90;;;;;;5054589;28;20506;-80
2021/05/14 11:47:24;;;;;;;11.75;5.80;;;17.20;99.90;;;;;;5045596;28;20429;-79
2021/05/14 11:49:51;;;;;;;12.43;5.97;;;17.40;99.90;;;;;;5061032;28;20076;-79
2021/05/14 11:52:38;;;;;;;8.07;5.82;;;17.70;99.90;;;;;;5045901;28;20080;-79
2021/05/14 11:55:08;;;;;;;10.98;6.18;;;17.80;99.90;;;;;;5045778;28;20057;-80
2021/05/14 11:57:36;;;;;;;12.57;5.97;;;17.90;99.90;;;;;;5045267;28;20057;-80
2021/05/14 12:00:06;;;;;;;11.77;5.90;;;17.90;99.90;;;;;;5045232;28;20055;-80
2021/05/14 12:02:44;;;;;;;10.57;6.03;;;17.90;99.90;;;;;;5048065;28;20504;-79
2021/05/14 12:05:13;;;;;;;12.70;6.07;;;17.70;99.90;;;;;;5041856;28;20060;-80
2021/05/14 12:07:42;;;;;;;9.40;5.30;;;17.70;99.90;;;;;;5057063;28;20039;-78
2021/05/14 12:10:14;;;;;;;14.30;5.90;;;17.60;99.90;;;;;;5060538;28;20056;-80
2021/05/14 12:12:42;;;;;;;73.75;21.02;;;17.70;99.90;;;;;;5045780;28;20045;-80
2021/05/14 12:15:23;;;;;;;11.75;5.53;;;17.70;99.90;;;;;;5061726;28;20059;-80
2021/05/14 12:18:00;;;;;;;22.50;4.90;;;17.90;99.90;;;;;;5064936;28;20095;-80
2021/05/14 12:20:39;;;;;;;7.00;3.70;;;18.20;99.90;;;;;;5058647;28;20052;-80
2021/05/14 12:23:11;;;;;;;8.45;4.57;;;18.50;98.90;;;;;;5042858;28;20483;-80
2021/05/14 12:26:02;;;;;;;8.63;4.38;;;18.60;96.60;;;;;;5063246;28;20102;-80
2021/05/14 12:28:31;;;;;;;8.27;4.32;;;18.60;98.80;;;;;;5036791;28;20051;-81
2021/05/14 12:30:59;;;;;;;11.10;4.82;;;18.60;96.60;;;;;;5061765;28;20049;-80
2021/05/14 12:33:26;;;;;;;10.35;5.45;;;18.50;98.40;;;;;;5048839;28;20132;-81
2021/05/14 12:35:58;;;;;;;8.27;5.25;;;18.30;98.90;;;;;;5059344;28;20057;-80
2021/05/14 12:38:39;;;;;;;12.52;4.82;;;18.20;99.00;;;;;;5046203;28;20064;-80
2021/05/14 12:41:32;;;;;;;10.95;4.65;;;18.30;99.20;;;;;;5047684;28;20061;-80
2021/05/14 12:44:21;;;;;;;11.82;5.32;;;18.40;99.90;;;;;;5047610;28;20407;-80
2021/05/14 12:46:57;;;;;;;11.05;4.95;;;18.60;97.80;;;;;;5041726;28;20052;-80
2021/05/14 12:49:28;;;;;;;14.70;5.72;;;18.60;96.80;;;;;;5045966;28;20404;-80
2021/05/14 12:52:09;;;;;;;7.75;4.32;;;18.80;99.00;;;;;;5047724;28;20412;-80
2021/05/14 12:54:39;;;;;;;11.02;4.15;;;19.30;97.10;;;;;;5049025;28;20053;-81
2021/05/14 12:57:21;;;;;;;11.23;4.45;;;19.60;95.80;;;;;;5039541;28;20107;-81